Artesia, New Mexico
Current Conditions -  °F | °C
As of 5:51 PM on Wednesday 26 Nov 2014 (Local Time) from KROW Reporting Station
Clear Clear  
Wind Chill: 50°   Ceiling: Unl
Heat Index: 50°   Visibility: 10mi
Dew Point: 25°   Wind: 6mph
Humidity: 38%   Direction: 200°SSW
Pressure: 30.25"   Gusts: NA
Location:  32.84°N, 104.39°W
Report Text: KROW 270051Z 20005KT 10SM CLR 10/M04 A3025 RMK AO2 SLP233 T01001039
Loading
Personal Weather Stations






























Interactive Weather Map New forecast layout! Learn more

10-Day Weather Forecast

Advertisements
Track Severe Weather on mobile